createdAt,value
2018-05-09T00:00:44.373Z,2.90
2018-05-09T00:01:44.368Z,2.90
2018-05-09T00:02:44.368Z,2.60
2018-05-09T00:03:44.359Z,3.30
2018-05-09T00:04:44.351Z,3.20
2018-05-09T00:05:44.347Z,3.10
2018-05-09T00:06:44.335Z,3.20
2018-05-09T00:07:44.331Z,3.10
2018-05-09T00:08:44.326Z,3.20
2018-05-09T00:09:44.325Z,3.50
2018-05-09T00:10:44.311Z,3.10
2018-05-09T00:11:44.309Z,3.20
2018-05-09T00:12:44.304Z,3.60
2018-05-09T00:13:44.295Z,3.20
2018-05-09T00:14:44.288Z,3.30
2018-05-09T00:15:44.284Z,3.30
2018-05-09T00:16:44.278Z,3.50
2018-05-09T00:17:44.270Z,3.80
2018-05-09T00:18:44.263Z,3.10
2018-05-09T00:19:44.259Z,3.60
2018-05-09T00:20:44.253Z,3.70
2018-05-09T00:21:44.245Z,3.20
2018-05-09T00:22:44.239Z,3.00
2018-05-09T00:23:44.231Z,3.40
2018-05-09T00:24:44.226Z,2.90
2018-05-09T00:25:44.218Z,2.90
2018-05-09T00:26:44.212Z,3.20
2018-05-09T00:27:44.209Z,3.20
2018-05-09T00:28:44.201Z,3.40
2018-05-09T00:29:44.202Z,3.10
2018-05-09T00:30:44.187Z,3.20
2018-05-09T00:31:44.180Z,3.20
2018-05-09T00:32:44.184Z,3.50
2018-05-09T00:33:44.174Z,3.30
2018-05-09T00:34:44.165Z,2.90
2018-05-09T00:35:44.154Z,3.10
2018-05-09T00:36:44.165Z,3.30
2018-05-09T00:37:44.142Z,3.10
2018-05-09T00:38:44.142Z,3.40
2018-05-09T00:39:44.128Z,3.40
2018-05-09T00:40:44.123Z,3.10
2018-05-09T00:41:44.180Z,3.00
2018-05-09T00:42:44.110Z,3.30
2018-05-09T00:43:44.107Z,3.30
2018-05-09T00:44:44.099Z,3.00
2018-05-09T00:45:44.095Z,2.80
2018-05-09T00:46:44.093Z,2.70
2018-05-09T00:47:44.080Z,3.10
2018-05-09T00:48:44.073Z,3.40
2018-05-09T00:49:44.069Z,3.20
2018-05-09T00:50:44.064Z,3.20
2018-05-09T00:51:44.055Z,3.40
2018-05-09T00:52:44.048Z,3.50
2018-05-09T00:53:44.037Z,3.50
2018-05-09T00:54:44.033Z,3.20
2018-05-09T00:55:44.026Z,3.50
2018-05-09T00:56:44.024Z,2.80
2018-05-09T00:57:44.014Z,3.50
2018-05-09T00:58:44.012Z,3.50
2018-05-09T00:59:44.004Z,3.40
2018-05-09T01:00:44.004Z,3.50
2018-05-09T01:01:43.987Z,3.70
2018-05-09T01:02:43.979Z,3.50
2018-05-09T01:03:43.975Z,3.40
2018-05-09T01:04:43.971Z,3.40
2018-05-09T01:05:43.958Z,3.50
2018-05-09T01:06:43.956Z,3.40
2018-05-09T01:07:43.953Z,3.00
2018-05-09T01:08:43.945Z,3.50
2018-05-09T01:09:43.934Z,3.50
2018-05-09T01:10:43.926Z,3.30
2018-05-09T01:11:43.921Z,3.40
2018-05-09T01:12:43.915Z,3.60
2018-05-09T01:13:43.906Z,3.20
2018-05-09T01:14:43.898Z,3.40
2018-05-09T01:15:43.893Z,3.40
2018-05-09T01:16:43.883Z,3.50
2018-05-09T01:17:43.878Z,3.30
2018-05-09T01:18:43.910Z,2.90
2018-05-09T01:19:43.862Z,3.50
2018-05-09T01:20:43.861Z,3.20
2018-05-09T01:21:43.853Z,3.90
2018-05-09T01:22:43.840Z,3.20
2018-05-09T01:23:43.834Z,3.60
2018-05-09T01:24:43.829Z,3.80
2018-05-09T01:25:43.824Z,3.30
2018-05-09T01:26:43.819Z,3.30
2018-05-09T01:27:43.810Z,3.40
2018-05-09T01:28:43.797Z,2.70
2018-05-09T01:29:43.789Z,3.30
2018-05-09T01:30:43.784Z,3.30
2018-05-09T01:31:43.777Z,3.00
2018-05-09T01:32:43.767Z,2.90
2018-05-09T01:33:43.762Z,3.30
2018-05-09T01:34:43.753Z,3.20
2018-05-09T01:35:43.746Z,3.20
2018-05-09T01:36:43.738Z,3.00
2018-05-09T01:37:43.730Z,3.10
2018-05-09T01:38:43.725Z,3.30
2018-05-09T01:39:43.717Z,2.90
2018-05-09T01:40:43.707Z,2.90
2018-05-09T01:41:43.704Z,3.10
2018-05-09T01:42:43.696Z,2.90
2018-05-09T01:43:43.689Z,2.90
2018-05-09T01:44:43.680Z,3.00
2018-05-09T01:45:43.674Z,3.30
2018-05-09T01:46:43.666Z,3.50
2018-05-09T01:47:43.658Z,3.20
2018-05-09T01:48:43.649Z,3.00
2018-05-09T01:49:43.642Z,2.80
2018-05-09T01:50:43.634Z,3.40
2018-05-09T01:51:43.628Z,3.20
2018-05-09T01:52:43.619Z,3.10
2018-05-09T01:53:43.614Z,3.20
2018-05-09T01:54:43.605Z,3.10
2018-05-09T01:55:43.596Z,2.90
2018-05-09T01:56:43.592Z,2.90
2018-05-09T01:57:43.583Z,3.30
2018-05-09T01:58:43.576Z,2.90
2018-05-09T01:59:43.566Z,3.20
2018-05-09T02:00:43.560Z,3.00
2018-05-09T02:01:43.559Z,3.20
2018-05-09T02:02:43.543Z,2.90
2018-05-09T02:03:43.539Z,3.10
2018-05-09T02:04:43.528Z,2.90
2018-05-09T02:05:43.523Z,3.20
2018-05-09T02:06:43.512Z,3.20
2018-05-09T02:07:43.508Z,3.20
2018-05-09T02:08:43.499Z,2.90
2018-05-09T02:09:43.490Z,3.00
2018-05-09T02:10:43.490Z,3.00
2018-05-09T02:11:43.474Z,2.50
2018-05-09T02:12:43.468Z,2.90
2018-05-09T02:13:43.459Z,2.60
2018-05-09T02:14:43.451Z,3.40
2018-05-09T02:15:43.444Z,2.70
2018-05-09T02:16:43.438Z,2.80
2018-05-09T02:17:43.471Z,2.70
2018-05-09T02:18:43.421Z,3.20
2018-05-09T02:19:43.414Z,2.70
2018-05-09T02:20:43.408Z,2.70
2018-05-09T02:21:43.399Z,2.80
2018-05-09T02:22:43.391Z,3.20
2018-05-09T02:23:43.385Z,3.10
2018-05-09T02:24:43.374Z,2.90
2018-05-09T02:25:43.370Z,2.90
2018-05-09T02:26:43.360Z,3.40
2018-05-09T02:27:43.356Z,2.80
2018-05-09T02:28:43.348Z,2.90
2018-05-09T02:29:43.336Z,2.80
2018-05-09T02:30:43.337Z,3.10
2018-05-09T02:31:43.320Z,2.90
2018-05-09T02:32:43.314Z,3.20
2018-05-09T02:33:43.307Z,3.00
2018-05-09T02:34:43.302Z,3.20
2018-05-09T02:35:43.293Z,3.20
2018-05-09T02:36:43.285Z,2.80
2018-05-09T02:37:43.277Z,3.00
2018-05-09T02:38:43.274Z,3.10
2018-05-09T02:39:43.267Z,3.00
2018-05-09T02:40:43.255Z,2.90
2018-05-09T02:41:43.253Z,3.40
2018-05-09T02:42:43.237Z,3.50
2018-05-09T02:43:43.330Z,3.40
2018-05-09T02:44:43.224Z,3.70
2018-05-09T02:45:43.214Z,3.70
2018-05-09T02:46:43.204Z,4.00
2018-05-09T02:47:43.196Z,3.00
2018-05-09T02:48:43.195Z,3.50
2018-05-09T02:49:43.186Z,3.30
2018-05-09T02:50:43.174Z,3.90
2018-05-09T02:51:43.167Z,3.80
2018-05-09T02:52:43.163Z,3.50
2018-05-09T02:53:43.151Z,3.50
2018-05-09T02:54:43.143Z,3.10
2018-05-09T02:55:43.135Z,3.30
2018-05-09T02:56:43.127Z,3.20
2018-05-09T02:57:43.119Z,3.10
2018-05-09T02:58:43.115Z,3.20
2018-05-09T02:59:43.100Z,3.10
2018-05-09T03:00:43.095Z,3.30
2018-05-09T03:01:43.089Z,3.20
2018-05-09T03:02:43.080Z,3.00
2018-05-09T03:03:43.068Z,3.10
2018-05-09T03:04:43.061Z,3.10
2018-05-09T03:05:43.061Z,2.90
2018-05-09T03:06:43.046Z,2.90
2018-05-09T03:07:43.034Z,3.10
2018-05-09T03:08:43.030Z,2.60
2018-05-09T03:09:43.018Z,3.00
2018-05-09T03:10:43.011Z,3.20
2018-05-09T03:11:43.004Z,3.10
2018-05-09T03:12:42.994Z,3.20
2018-05-09T03:13:42.985Z,3.10
2018-05-09T03:14:42.977Z,3.00
2018-05-09T03:15:42.972Z,3.80
2018-05-09T03:16:42.961Z,3.10
2018-05-09T03:17:42.954Z,3.30
2018-05-09T03:18:42.945Z,3.30
2018-05-09T03:19:42.939Z,3.40
2018-05-09T03:20:42.932Z,3.50
2018-05-09T03:21:42.920Z,3.20
2018-05-09T03:22:42.913Z,3.60
2018-05-09T03:23:42.906Z,3.60
2018-05-09T03:24:42.899Z,3.90
2018-05-09T03:25:42.888Z,3.40
2018-05-09T03:26:42.876Z,3.40
2018-05-09T03:27:42.873Z,3.50
2018-05-09T03:28:42.865Z,3.40
2018-05-09T03:29:42.885Z,3.50
2018-05-09T03:30:42.844Z,3.20
2018-05-09T03:31:42.837Z,3.10
2018-05-09T03:32:42.829Z,2.90
2018-05-09T03:33:42.828Z,2.80
2018-05-09T03:34:42.814Z,3.10
2018-05-09T03:35:42.805Z,3.10
2018-05-09T03:36:42.799Z,3.00
2018-05-09T03:37:42.788Z,3.30
2018-05-09T03:38:42.780Z,3.10
2018-05-09T03:39:42.772Z,3.20
2018-05-09T03:40:42.763Z,3.30
2018-05-09T03:41:42.760Z,3.50
2018-05-09T03:42:42.751Z,3.10
2018-05-09T03:43:42.742Z,3.70
2018-05-09T03:44:42.736Z,3.60
2018-05-09T03:45:42.756Z,3.70
2018-05-09T03:46:42.712Z,3.30
2018-05-09T03:47:42.706Z,3.40
2018-05-09T03:48:42.698Z,3.30
2018-05-09T03:49:42.691Z,3.50
2018-05-09T03:50:42.685Z,3.10
2018-05-09T03:51:42.676Z,3.70
2018-05-09T03:52:42.664Z,3.30
2018-05-09T03:53:42.660Z,3.60
2018-05-09T03:54:42.649Z,3.30
2018-05-09T03:55:42.639Z,3.80
2018-05-09T03:56:42.638Z,3.50
2018-05-09T03:57:42.622Z,3.30
2018-05-09T03:58:42.618Z,3.30
2018-05-09T03:59:42.607Z,3.50
2018-05-09T04:00:42.602Z,3.40
2018-05-09T04:01:42.601Z,3.30
2018-05-09T04:02:42.585Z,3.60
2018-05-09T04:03:42.574Z,3.50
2018-05-09T04:04:42.565Z,3.60
2018-05-09T04:05:42.561Z,3.50
2018-05-09T04:06:42.548Z,3.70
2018-05-09T04:07:42.541Z,3.90
2018-05-09T04:08:42.533Z,3.70
2018-05-09T04:09:42.525Z,3.40
2018-05-09T04:10:42.516Z,3.20
2018-05-09T04:11:42.507Z,3.40
2018-05-09T04:12:42.505Z,3.70
2018-05-09T04:13:42.490Z,3.80
2018-05-09T04:14:42.530Z,3.60
2018-05-09T04:15:42.473Z,3.80
2018-05-09T04:16:42.466Z,3.80
2018-05-09T04:17:42.457Z,3.90
2018-05-09T04:18:42.448Z,3.80
2018-05-09T04:19:42.439Z,3.50
2018-05-09T04:20:42.523Z,4.10
2018-05-09T04:21:42.424Z,4.20
2018-05-09T04:22:42.417Z,4.10
2018-05-09T04:23:42.404Z,4.50
2018-05-09T04:24:42.403Z,4.30
2018-05-09T04:25:42.389Z,4.70
2018-05-09T04:26:42.381Z,5.30
2018-05-09T04:27:42.370Z,5.60
2018-05-09T04:28:42.366Z,5.20
2018-05-09T04:29:42.356Z,5.10
2018-05-09T04:30:42.350Z,5.70
2018-05-09T04:31:42.341Z,7.30
2018-05-09T04:32:42.330Z,5.90
2018-05-09T04:33:42.323Z,5.80
2018-05-09T04:34:42.312Z,5.00
2018-05-09T04:35:42.305Z,5.00
2018-05-09T04:36:42.301Z,3.50
2018-05-09T04:37:42.292Z,3.60
2018-05-09T04:38:42.283Z,4.20
2018-05-09T04:39:42.272Z,3.70
2018-05-09T04:40:42.262Z,3.70
2018-05-09T04:41:42.257Z,3.40
2018-05-09T04:42:42.339Z,3.80
2018-05-09T04:43:42.243Z,3.90
2018-05-09T04:44:42.235Z,4.50
2018-05-09T04:45:42.228Z,4.50
2018-05-09T04:46:42.223Z,4.60
2018-05-09T04:47:42.218Z,4.60
2018-05-09T04:48:42.209Z,4.90
2018-05-09T04:49:42.206Z,4.70
2018-05-09T04:50:42.200Z,4.90
2018-05-09T04:51:42.195Z,5.10
2018-05-09T04:52:42.192Z,5.20
2018-05-09T04:53:42.188Z,5.60
2018-05-09T04:54:42.182Z,5.60
2018-05-09T04:55:42.278Z,5.50
2018-05-09T04:56:42.174Z,5.70
2018-05-09T04:57:42.171Z,5.30
2018-05-09T04:58:42.169Z,5.60
2018-05-09T04:59:42.162Z,5.30
2018-05-09T05:00:42.156Z,4.90
2018-05-09T05:01:42.160Z,5.00
2018-05-09T05:02:42.153Z,4.90
2018-05-09T05:03:42.149Z,4.70
2018-05-09T05:04:42.150Z,4.60
2018-05-09T05:05:42.143Z,4.00
2018-05-09T05:06:42.140Z,4.20
2018-05-09T05:07:42.136Z,4.40
2018-05-09T05:08:42.131Z,4.10
2018-05-09T05:09:42.128Z,4.10
2018-05-09T05:10:42.125Z,4.10
2018-05-09T05:11:42.120Z,4.50
2018-05-09T05:12:42.122Z,4.70
2018-05-09T05:13:42.114Z,4.70
2018-05-09T05:14:42.107Z,5.20
2018-05-09T05:15:42.126Z,7.00
2018-05-09T05:16:42.104Z,8.10
2018-05-09T05:17:42.098Z,5.90
2018-05-09T05:18:42.096Z,4.90
2018-05-09T05:19:42.089Z,4.90
2018-05-09T05:20:42.084Z,4.40
2018-05-09T05:21:42.085Z,4.90
2018-05-09T05:22:42.071Z,4.20
2018-05-09T05:23:42.067Z,4.50
2018-05-09T05:24:42.065Z,4.40
2018-05-09T05:25:42.062Z,4.50
2018-05-09T05:26:42.052Z,4.50
2018-05-09T05:27:42.050Z,5.10
2018-05-09T05:28:42.043Z,4.70
2018-05-09T05:29:42.043Z,4.70
2018-05-09T05:30:42.033Z,4.50
2018-05-09T05:31:42.027Z,5.40
2018-05-09T05:32:42.056Z,4.40
2018-05-09T05:33:42.019Z,4.90
2018-05-09T05:34:42.014Z,4.50
2018-05-09T05:35:42.007Z,5.00
2018-05-09T05:36:42.002Z,4.80
2018-05-09T05:37:41.997Z,5.20
2018-05-09T05:38:42.034Z,4.90
2018-05-09T05:39:41.989Z,4.80
2018-05-09T05:40:41.981Z,4.90
2018-05-09T05:41:41.977Z,5.30
2018-05-09T05:42:41.973Z,5.80
2018-05-09T05:43:41.967Z,4.80
2018-05-09T05:44:41.963Z,4.30
2018-05-09T05:45:41.958Z,5.00
2018-05-09T05:46:41.952Z,4.70
2018-05-09T05:47:41.951Z,4.80
2018-05-09T05:48:41.941Z,5.10
2018-05-09T05:49:41.935Z,4.60
2018-05-09T05:50:41.931Z,4.60
2018-05-09T05:51:41.932Z,4.60
2018-05-09T05:52:41.922Z,5.80
2018-05-09T05:53:41.916Z,5.30
2018-05-09T05:54:41.910Z,5.40
2018-05-09T05:55:41.905Z,4.90
2018-05-09T05:56:41.900Z,5.40
2018-05-09T05:57:41.898Z,5.20
2018-05-09T05:58:41.893Z,5.30
2018-05-09T05:59:41.885Z,5.50
2018-05-09T06:00:41.882Z,4.80
2018-05-09T06:01:41.874Z,5.10
2018-05-09T06:02:41.872Z,4.80
2018-05-09T06:03:41.862Z,4.40
2018-05-09T06:04:41.863Z,4.50
2018-05-09T06:05:41.856Z,5.00
2018-05-09T06:06:41.851Z,4.80
2018-05-09T06:07:41.842Z,4.90
2018-05-09T06:08:41.839Z,5.00
2018-05-09T06:09:41.836Z,6.10
2018-05-09T06:10:41.828Z,5.60
2018-05-09T06:11:41.825Z,5.20
2018-05-09T06:12:41.818Z,5.00
2018-05-09T06:13:41.813Z,4.90
2018-05-09T06:14:41.807Z,4.60
2018-05-09T06:15:41.804Z,4.60
2018-05-09T06:16:41.798Z,4.60
2018-05-09T06:17:41.792Z,4.80
2018-05-09T06:18:41.786Z,4.80
2018-05-09T06:19:41.783Z,4.40
2018-05-09T06:20:41.777Z,5.10
2018-05-09T06:21:41.818Z,4.70
2018-05-09T06:22:41.772Z,4.90
2018-05-09T06:23:41.768Z,5.20
2018-05-09T06:24:41.759Z,5.00
2018-05-09T06:25:41.754Z,5.60
2018-05-09T06:26:41.750Z,4.50
2018-05-09T06:27:41.769Z,5.30
2018-05-09T06:28:41.736Z,4.90
2018-05-09T06:29:41.733Z,5.00
2018-05-09T06:30:41.733Z,4.90
2018-05-09T06:31:41.731Z,5.70
2018-05-09T06:32:41.721Z,5.00
2018-05-09T06:33:41.715Z,4.50
2018-05-09T06:34:41.712Z,5.20
2018-05-09T06:35:41.713Z,4.50
2018-05-09T06:36:41.700Z,5.50
2018-05-09T06:37:41.752Z,5.20
2018-05-09T06:38:41.691Z,5.30
2018-05-09T06:39:41.691Z,5.20
2018-05-09T06:40:41.683Z,5.10
2018-05-09T06:41:41.742Z,5.50
2018-05-09T06:42:41.673Z,5.30
2018-05-09T06:43:41.763Z,4.90
2018-05-09T06:44:41.664Z,5.00
2018-05-09T06:45:41.660Z,4.90
2018-05-09T06:46:41.654Z,5.30
2018-05-09T06:47:41.652Z,5.30
2018-05-09T06:48:41.657Z,4.90
2018-05-09T06:49:41.644Z,5.10
2018-05-09T06:50:41.636Z,5.10
2018-05-09T06:51:41.635Z,5.20
2018-05-09T06:52:41.635Z,5.00
2018-05-09T06:53:41.633Z,4.60
2018-05-09T06:54:41.620Z,5.40
2018-05-09T06:55:41.617Z,5.60
2018-05-09T06:56:41.613Z,5.30
2018-05-09T06:57:41.616Z,5.50
2018-05-09T06:58:41.603Z,5.10
2018-05-09T06:59:41.600Z,5.70
2018-05-09T07:00:41.599Z,5.10
2018-05-09T07:01:41.596Z,5.00
2018-05-09T07:02:41.589Z,5.20
2018-05-09T07:03:41.587Z,5.10
2018-05-09T07:04:41.583Z,4.90
2018-05-09T07:05:41.579Z,4.80
2018-05-09T07:06:41.878Z,4.90
2018-05-09T07:07:41.567Z,5.20
2018-05-09T07:08:41.566Z,5.00
2018-05-09T07:09:41.560Z,5.10
2018-05-09T07:10:41.641Z,5.30
2018-05-09T07:11:41.550Z,4.40
2018-05-09T07:12:41.653Z,4.90
2018-05-09T07:13:41.544Z,5.20
2018-05-09T07:14:41.538Z,5.00
2018-05-09T07:15:41.533Z,4.90
2018-05-09T07:16:41.528Z,5.00
2018-05-09T07:17:41.528Z,5.10
2018-05-09T07:18:41.520Z,5.60
2018-05-09T07:19:41.520Z,4.90
2018-05-09T07:20:41.526Z,5.60
2018-05-09T07:21:41.513Z,5.70
2018-05-09T07:22:41.510Z,5.20
2018-05-09T07:23:41.503Z,5.10
2018-05-09T07:24:41.503Z,4.70
2018-05-09T07:25:41.496Z,5.00
2018-05-09T07:26:41.494Z,5.40
2018-05-09T07:27:41.490Z,5.30
2018-05-09T07:28:41.485Z,5.30
2018-05-09T07:29:41.484Z,5.30
2018-05-09T07:30:41.485Z,5.50
2018-05-09T07:31:41.475Z,5.30
2018-05-09T07:32:41.474Z,5.10
2018-05-09T07:33:41.469Z,4.80
2018-05-09T07:34:41.474Z,5.20
2018-05-09T07:35:41.471Z,5.10
2018-05-09T07:36:41.462Z,5.30
2018-05-09T07:37:41.461Z,4.60
2018-05-09T07:38:41.456Z,5.90
2018-05-09T07:39:41.453Z,6.50
2018-05-09T07:40:41.454Z,5.90
2018-05-09T07:41:41.446Z,5.10
2018-05-09T07:42:41.444Z,5.50
2018-05-09T07:43:41.439Z,5.30
2018-05-09T07:44:41.438Z,5.60
2018-05-09T07:45:41.439Z,5.00
2018-05-09T07:46:41.439Z,5.30
2018-05-09T07:47:41.578Z,4.80
2018-05-09T07:48:41.424Z,4.80
2018-05-09T07:49:41.421Z,4.80
2018-05-09T07:50:41.418Z,5.10
2018-05-09T07:51:41.414Z,5.40
2018-05-09T07:52:41.413Z,5.30
2018-05-09T07:53:41.409Z,5.30
2018-05-09T07:54:41.404Z,5.00
2018-05-09T07:55:41.405Z,4.70
2018-05-09T07:56:41.401Z,4.60
2018-05-09T07:57:41.403Z,5.50
2018-05-09T07:58:41.392Z,5.00
2018-05-09T07:59:41.392Z,4.50
2018-05-09T08:00:41.389Z,4.40
2018-05-09T08:01:41.391Z,5.30
2018-05-09T08:02:41.432Z,4.60
2018-05-09T08:03:41.388Z,5.10
2018-05-09T08:04:41.378Z,5.20
2018-05-09T08:05:41.379Z,5.40
2018-05-09T08:06:41.379Z,5.40
2018-05-09T08:07:41.374Z,5.40
2018-05-09T08:08:41.365Z,4.80
2018-05-09T08:09:41.363Z,5.60
2018-05-09T08:10:41.360Z,5.20
2018-05-09T08:11:41.361Z,5.90
2018-05-09T08:12:41.364Z,5.80
2018-05-09T08:13:41.352Z,5.00
2018-05-09T08:14:41.357Z,5.00
2018-05-09T08:15:41.345Z,4.90
2018-05-09T08:16:41.340Z,5.60
2018-05-09T08:17:41.341Z,5.50
2018-05-09T08:18:41.338Z,4.80
2018-05-09T08:19:41.337Z,5.00
2018-05-09T08:20:41.333Z,4.80
2018-05-09T08:21:41.332Z,4.70
2018-05-09T08:22:41.329Z,5.30
2018-05-09T08:23:41.347Z,4.80
2018-05-09T08:24:41.341Z,6.00
2018-05-09T08:25:41.324Z,5.20
2018-05-09T08:26:41.321Z,5.80
2018-05-09T08:27:41.316Z,5.40
2018-05-09T08:28:41.313Z,4.80
2018-05-09T08:29:41.312Z,5.20
2018-05-09T08:30:41.312Z,5.20
2018-05-09T08:31:41.316Z,5.10
2018-05-09T08:32:41.305Z,5.20
2018-05-09T08:33:41.305Z,4.80
2018-05-09T08:34:41.307Z,4.90
2018-05-09T08:35:41.299Z,4.80
2018-05-09T08:36:41.377Z,5.40
2018-05-09T08:37:41.299Z,5.00
2018-05-09T08:38:41.289Z,4.70
2018-05-09T08:39:41.294Z,5.20
2018-05-09T08:40:41.291Z,5.50
2018-05-09T08:41:41.289Z,4.90
2018-05-09T08:42:41.287Z,4.90
2018-05-09T08:43:41.342Z,5.90
2018-05-09T08:44:41.285Z,5.50
2018-05-09T08:45:41.281Z,5.00
2018-05-09T08:46:41.281Z,5.10
2018-05-09T08:47:41.273Z,5.20
2018-05-09T08:48:41.274Z,5.40
2018-05-09T08:49:41.274Z,5.60
2018-05-09T08:50:41.272Z,5.40
2018-05-09T08:51:41.278Z,5.50
2018-05-09T08:52:41.270Z,5.30
2018-05-09T08:53:41.268Z,5.20
2018-05-09T08:54:41.263Z,5.30
2018-05-09T08:55:41.267Z,5.20
2018-05-09T08:56:41.273Z,5.30
2018-05-09T08:57:41.264Z,5.10
2018-05-09T08:58:41.259Z,6.40
2018-05-09T08:59:41.258Z,5.40
2018-05-09T09:00:41.271Z,5.70
2018-05-09T09:01:41.259Z,5.40
2018-05-09T09:02:41.258Z,5.40
2018-05-09T09:03:41.251Z,5.10
2018-05-09T09:04:41.252Z,5.40
2018-05-09T09:05:41.251Z,5.40
2018-05-09T09:06:41.253Z,5.20
2018-05-09T09:07:41.255Z,5.50
2018-05-09T09:08:41.244Z,5.20
2018-05-09T09:09:41.245Z,4.80
2018-05-09T09:10:41.244Z,5.70
2018-05-09T09:11:41.242Z,5.50
2018-05-09T09:12:41.241Z,5.00
2018-05-09T09:13:41.240Z,4.90
2018-05-09T09:14:41.239Z,5.10
2018-05-09T09:15:41.317Z,4.80
2018-05-09T09:16:41.310Z,5.00
2018-05-09T09:17:41.235Z,5.40
2018-05-09T09:18:41.260Z,4.70
2018-05-09T09:19:41.234Z,4.30
2018-05-09T09:20:41.231Z,4.80
2018-05-09T09:21:41.232Z,4.50
2018-05-09T09:22:41.227Z,5.20
2018-05-09T09:23:41.234Z,4.90
2018-05-09T09:24:41.229Z,5.00
2018-05-09T09:25:41.229Z,5.50
2018-05-09T09:26:41.229Z,5.20
2018-05-09T09:27:41.231Z,5.10
2018-05-09T09:28:41.221Z,5.00
2018-05-09T09:29:41.233Z,5.50
2018-05-09T09:30:41.226Z,5.10
2018-05-09T09:31:41.221Z,4.50
2018-05-09T09:32:41.227Z,5.40
2018-05-09T09:33:41.220Z,4.70
2018-05-09T09:34:41.218Z,4.50
2018-05-09T09:35:41.216Z,4.80
2018-05-09T09:36:41.216Z,4.70
2018-05-09T09:37:41.218Z,4.40
2018-05-09T09:38:41.216Z,4.70
2018-05-09T09:39:41.213Z,5.00
2018-05-09T09:40:41.211Z,4.80
2018-05-09T09:41:41.211Z,5.10
2018-05-09T09:42:41.210Z,4.80
2018-05-09T09:43:41.214Z,4.40
2018-05-09T09:44:41.284Z,3.80
2018-05-09T09:45:41.208Z,4.60
2018-05-09T09:46:41.210Z,4.20
2018-05-09T09:47:41.209Z,4.50
2018-05-09T09:48:41.202Z,4.50
2018-05-09T09:49:41.205Z,4.70
2018-05-09T09:50:41.212Z,4.30
2018-05-09T09:51:41.202Z,4.10
2018-05-09T09:52:41.241Z,4.30
2018-05-09T09:53:41.200Z,5.10
2018-05-09T09:54:41.197Z,4.80
2018-05-09T09:55:41.206Z,5.30
2018-05-09T09:56:41.197Z,5.10
2018-05-09T09:57:41.203Z,4.30
2018-05-09T09:58:41.193Z,4.00
2018-05-09T09:59:41.197Z,5.00
2018-05-09T10:00:41.198Z,4.80
2018-05-09T10:01:41.226Z,4.90
2018-05-09T10:02:41.196Z,4.40
2018-05-09T10:03:41.190Z,4.30
2018-05-09T10:04:41.195Z,4.40
2018-05-09T10:05:41.190Z,4.50
2018-05-09T10:06:41.193Z,4.60
2018-05-09T10:07:41.187Z,4.90
2018-05-09T10:08:41.197Z,4.10
2018-05-09T10:09:41.191Z,4.50
2018-05-09T10:10:41.189Z,4.20
2018-05-09T10:11:41.187Z,4.30
2018-05-09T10:12:41.185Z,4.30
2018-05-09T10:13:41.191Z,4.20
2018-05-09T10:14:41.182Z,4.50
2018-05-09T10:15:41.182Z,4.80
2018-05-09T10:16:41.180Z,4.60
2018-05-09T10:17:41.182Z,4.70
2018-05-09T10:18:41.180Z,4.70
2018-05-09T10:19:41.176Z,4.30
2018-05-09T10:20:41.177Z,3.90
2018-05-09T10:21:41.173Z,3.40
2018-05-09T10:22:41.174Z,3.60
2018-05-09T10:23:41.174Z,3.90
2018-05-09T10:24:41.171Z,4.00
2018-05-09T10:25:41.172Z,3.90
2018-05-09T10:26:41.172Z,4.00
2018-05-09T10:27:41.174Z,3.90
2018-05-09T10:28:41.168Z,3.90
2018-05-09T10:29:41.167Z,3.90
2018-05-09T10:30:41.168Z,4.20
2018-05-09T10:31:41.178Z,4.40
2018-05-09T10:32:41.168Z,4.30
2018-05-09T10:33:41.161Z,4.30
2018-05-09T10:34:41.158Z,3.90
2018-05-09T10:35:41.161Z,4.20
2018-05-09T10:36:41.160Z,4.10
2018-05-09T10:37:41.161Z,3.60
2018-05-09T10:38:41.160Z,4.10
2018-05-09T10:39:41.157Z,4.50
2018-05-09T10:40:41.155Z,4.00
2018-05-09T10:41:41.157Z,4.20
2018-05-09T10:42:41.154Z,4.70
2018-05-09T10:43:41.154Z,4.10
2018-05-09T10:44:41.150Z,4.00
2018-05-09T10:45:41.151Z,4.40
2018-05-09T10:46:41.149Z,4.30
2018-05-09T10:47:41.150Z,5.00
2018-05-09T10:48:41.147Z,4.60
2018-05-09T10:49:41.150Z,4.30
2018-05-09T10:50:41.149Z,5.10
2018-05-09T10:51:41.147Z,4.20
2018-05-09T10:52:41.148Z,4.50
2018-05-09T10:53:41.145Z,4.30
2018-05-09T10:54:41.145Z,4.20
2018-05-09T10:55:41.143Z,3.90
2018-05-09T10:56:41.142Z,4.30
2018-05-09T10:57:41.142Z,3.40
2018-05-09T10:58:41.139Z,4.00
2018-05-09T10:59:41.143Z,3.40
2018-05-09T11:00:41.138Z,3.50
2018-05-09T11:01:41.138Z,3.60
2018-05-09T11:02:41.168Z,3.80
2018-05-09T11:03:41.138Z,3.70
2018-05-09T11:04:41.185Z,4.60
2018-05-09T11:05:41.139Z,4.50
2018-05-09T11:06:41.136Z,4.80
2018-05-09T11:07:41.136Z,4.40
2018-05-09T11:08:41.135Z,5.20
2018-05-09T11:09:41.141Z,5.10
2018-05-09T11:10:41.149Z,4.70
2018-05-09T11:11:41.137Z,4.50
2018-05-09T11:12:41.139Z,4.70
2018-05-09T11:13:41.136Z,4.80
2018-05-09T11:14:41.138Z,4.40
2018-05-09T11:15:41.136Z,4.80
2018-05-09T11:16:41.134Z,4.70
2018-05-09T11:17:41.232Z,4.50
2018-05-09T11:18:41.135Z,4.40
2018-05-09T11:19:41.137Z,4.50
2018-05-09T11:20:41.140Z,4.70
2018-05-09T11:21:41.139Z,4.50
2018-05-09T11:22:41.137Z,3.80
2018-05-09T11:23:41.139Z,3.70
2018-05-09T11:24:41.206Z,3.90
2018-05-09T11:25:41.141Z,3.90
2018-05-09T11:26:41.139Z,4.10
2018-05-09T11:27:41.138Z,3.20
2018-05-09T11:28:41.142Z,3.70
2018-05-09T11:29:41.146Z,3.50
2018-05-09T11:30:41.139Z,2.80
2018-05-09T11:31:41.140Z,4.00
2018-05-09T11:32:41.140Z,4.00
2018-05-09T11:33:41.143Z,3.50
2018-05-09T11:34:41.141Z,3.80
2018-05-09T11:35:41.142Z,3.90
2018-05-09T11:36:41.139Z,3.80
2018-05-09T11:37:41.139Z,4.20
2018-05-09T11:38:41.153Z,3.40
2018-05-09T11:39:41.140Z,3.10
2018-05-09T11:40:41.140Z,3.30
2018-05-09T11:41:41.141Z,2.90
2018-05-09T11:42:41.139Z,3.30
2018-05-09T11:43:41.141Z,3.10
2018-05-09T11:44:41.140Z,3.10
2018-05-09T11:45:41.140Z,2.90
2018-05-09T11:46:41.140Z,3.40
2018-05-09T11:47:41.147Z,3.40
2018-05-09T11:48:41.145Z,3.20
2018-05-09T11:49:41.143Z,3.60
2018-05-09T11:50:41.142Z,3.30
2018-05-09T11:51:41.143Z,3.50
2018-05-09T11:52:41.144Z,3.00
2018-05-09T11:53:41.145Z,3.40
2018-05-09T11:54:41.145Z,3.50
2018-05-09T11:55:41.139Z,3.70
2018-05-09T11:56:41.145Z,3.20
2018-05-09T11:57:41.139Z,3.10
2018-05-09T11:58:41.137Z,3.30
2018-05-09T11:59:41.138Z,3.40
2018-05-09T12:00:41.143Z,3.70
2018-05-09T12:01:41.138Z,3.80
2018-05-09T12:02:41.138Z,3.00
2018-05-09T12:03:41.140Z,3.40
2018-05-09T12:04:41.141Z,3.30
2018-05-09T12:05:41.144Z,3.40
2018-05-09T12:06:41.138Z,3.60
2018-05-09T12:07:41.136Z,3.50
2018-05-09T12:08:41.147Z,3.60
2018-05-09T12:09:41.137Z,3.60
2018-05-09T12:10:41.194Z,3.30
2018-05-09T12:11:41.135Z,3.00
2018-05-09T12:12:41.138Z,3.30
2018-05-09T12:13:41.134Z,3.30
2018-05-09T12:14:41.134Z,3.10
2018-05-09T12:15:41.133Z,2.80
2018-05-09T12:16:41.131Z,2.70
2018-05-09T12:17:41.131Z,2.50
2018-05-09T12:18:41.139Z,2.60
2018-05-09T12:19:41.129Z,2.60
2018-05-09T12:20:41.126Z,2.90
2018-05-09T12:21:41.127Z,2.80
2018-05-09T12:22:41.125Z,3.00
2018-05-09T12:23:41.127Z,2.70
2018-05-09T12:24:41.171Z,2.70
2018-05-09T12:25:41.124Z,3.40
2018-05-09T12:26:41.122Z,3.30
2018-05-09T12:27:41.120Z,3.20
2018-05-09T12:28:41.122Z,3.70
2018-05-09T12:29:41.118Z,3.40
2018-05-09T12:30:41.119Z,3.60
2018-05-09T12:31:41.120Z,3.20
2018-05-09T12:32:41.118Z,3.20
2018-05-09T12:33:41.122Z,3.20
2018-05-09T12:34:41.127Z,3.00
2018-05-09T12:35:41.116Z,3.30
2018-05-09T12:36:41.118Z,3.00
2018-05-09T12:37:41.115Z,3.10
2018-05-09T12:38:41.116Z,3.10
2018-05-09T12:39:41.116Z,3.60
2018-05-09T12:40:41.112Z,3.60
2018-05-09T12:41:41.108Z,3.30
2018-05-09T12:42:41.112Z,3.10
2018-05-09T12:43:41.106Z,3.20
2018-05-09T12:44:41.108Z,3.00
2018-05-09T12:45:41.109Z,3.00
2018-05-09T12:46:41.107Z,3.00
2018-05-09T12:47:41.108Z,3.20
2018-05-09T12:48:41.137Z,2.90
2018-05-09T12:49:41.103Z,2.80
2018-05-09T12:50:41.104Z,2.90
2018-05-09T12:51:41.106Z,3.00
2018-05-09T12:52:41.101Z,2.70
2018-05-09T12:53:41.104Z,2.80
2018-05-09T12:54:41.165Z,3.20
2018-05-09T12:55:41.101Z,2.70
2018-05-09T12:56:41.100Z,2.80
2018-05-09T12:57:41.097Z,2.70
2018-05-09T12:58:41.100Z,3.00
2018-05-09T12:59:41.098Z,3.40
2018-05-09T13:00:41.102Z,3.30
2018-05-09T13:01:41.103Z,2.90
2018-05-09T13:02:41.099Z,3.00
2018-05-09T13:03:41.101Z,3.10
2018-05-09T13:04:41.100Z,3.00
2018-05-09T13:05:41.098Z,2.80
2018-05-09T13:06:41.094Z,3.20
2018-05-09T13:07:41.100Z,2.80
2018-05-09T13:08:41.098Z,2.80
2018-05-09T13:09:41.095Z,2.70
2018-05-09T13:10:41.095Z,3.00
2018-05-09T13:11:41.091Z,3.10
2018-05-09T13:12:41.094Z,2.90
2018-05-09T13:13:41.091Z,3.10
2018-05-09T13:14:41.091Z,3.10
2018-05-09T13:15:41.095Z,2.90
2018-05-09T13:16:41.093Z,2.80
2018-05-09T13:17:41.094Z,2.90
2018-05-09T13:18:41.089Z,3.00